Startpagina
METAR-TAF:

METAR-TAF

Vliegvelden :

Luchthaven Malindi

Malindi, Kenia

breedte: 03-14S, lengte: 040-06E, hoogte: 20 m

Actueel weer

Dit bericht is 2 uur en het 12 minuten geleden gemaakt, om 19:00 UTC
Wind 10 kt uit het oostnoordoosten
Temperatuur 29°C
Vochtigheid 84%
Druk 1010 hPa
Zicht 10 km of meer

METAR: HKML 231900Z 06010KT 9999 SCT20 29/26 Q1010

Tijdstip: 00:12 (21:12 UTC)

Verwachting

Dit bericht is 4 uur en het 12 minuten geleden gemaakt, om 17:00 UTC
Verwachting geldig van 23 om 18 UTC tot 24 om 18 UTC
Wind 10 kt uit het oostnoordoosten
Zicht 10 km of meer
Weinig wolken op 2200 ft
Wijzigt naar
van 24 om 00 UTC tot 24 om 06 UTC
Wind 5 kt uit het noordnoordwesten
Weinig wolken op 2000 ft
Wijzigt naar
van 24 om 09 UTC tot 24 om 12 UTC
Wind 10 kt uit het oostnoordoosten
Verspreide wolken op 2600 ft
Wijzigt naar
van 24 om 15 UTC tot 24 om 18 UTC
Weinig wolken op 2300 ft

TAF: HKML 231700Z 2318/2418 06010KT 9999 FEW022 BECMG 2400/2406 34005KT FEW020 BECMG 2409/2412 06010KT SCT026 BECMG 2415/2418 FEW023

Waarnemingen en weersverwachtingen van meer dan 4000 vliegvelden (METAR en TAF).

De beschikbare stations zijn de gele en rode punten op de kaart.

Ga met uw muis naar het station om de naam te zien.

Klik dan om waarnemingen en weersverwachtingen te zien.

kaart wijzigen: klik op de groene knoppen met een zwart kruis om in te zoomen, op de groene knop met een streepje om uit te zoomen of op de groene pijlen voor aangrenzende kaarten.


METAR-TAF: